createdAt,value
2023-05-04T00:01:21.002Z,2.72
2023-05-04T00:03:48.652Z,3.17
2023-05-04T00:06:16.325Z,2.35
2023-05-04T00:08:43.729Z,2.63
2023-05-04T00:11:11.435Z,3.38
2023-05-04T00:13:38.939Z,2.90
2023-05-04T00:16:10.908Z,2.90
2023-05-04T00:18:39.381Z,3.05
2023-05-04T00:21:07.169Z,3.03
2023-05-04T00:23:34.790Z,3.50
2023-05-04T00:26:02.428Z,2.97
2023-05-04T00:28:29.952Z,2.95
2023-05-04T00:30:57.311Z,3.17
2023-05-04T00:33:24.716Z,4.57
2023-05-04T00:35:52.195Z,2.97
2023-05-04T00:38:19.692Z,3.70
2023-05-04T00:40:47.066Z,3.25
2023-05-04T00:43:14.700Z,3.42
2023-05-04T00:45:42.414Z,2.95
2023-05-04T00:48:10.316Z,2.97
2023-05-04T00:50:37.893Z,2.97
2023-05-04T00:53:10.312Z,3.92
2023-05-04T00:55:41.151Z,3.15
2023-05-04T00:58:09.298Z,4.03
2023-05-04T01:00:37.018Z,3.05
2023-05-04T01:03:04.696Z,3.45
2023-05-04T01:05:36.332Z,3.13
2023-05-04T01:08:21.460Z,3.08
2023-05-04T01:11:01.278Z,4.13
2023-05-04T01:13:29.019Z,3.05
2023-05-04T01:15:59.428Z,2.75
2023-05-04T01:18:27.052Z,3.70
2023-05-04T01:20:54.578Z,2.90
2023-05-04T01:23:22.713Z,3.58
2023-05-04T01:26:04.092Z,3.30
2023-05-04T01:28:35.974Z,3.33
2023-05-04T01:31:04.151Z,4.22
2023-05-04T01:33:32.050Z,3.33
2023-05-04T01:35:59.842Z,4.05
2023-05-04T01:38:27.249Z,3.10
2023-05-04T01:40:56.903Z,3.78
2023-05-04T01:43:24.525Z,3.35
2023-05-04T01:45:52.142Z,3.42
2023-05-04T01:48:19.832Z,3.42
2023-05-04T01:50:47.525Z,4.25
2023-05-04T01:53:15.147Z,3.35
2023-05-04T01:55:45.580Z,3.53
2023-05-04T01:58:14.418Z,2.88
2023-05-04T02:00:42.046Z,2.85
2023-05-04T02:03:09.848Z,3.17
2023-05-04T02:05:37.438Z,3.20
2023-05-04T02:08:04.943Z,3.20
2023-05-04T02:10:33.751Z,3.63
2023-05-04T02:13:01.654Z,3.63
2023-05-04T02:15:29.293Z,2.95
2023-05-04T02:17:56.983Z,3.78
2023-05-04T02:20:24.641Z,3.03
2023-05-04T02:22:52.113Z,3.67
2023-05-04T02:25:19.600Z,3.67
2023-05-04T02:27:47.009Z,2.95
2023-05-04T02:30:14.819Z,3.08
2023-05-04T02:32:42.259Z,3.05
2023-05-04T02:35:10.191Z,3.83
2023-05-04T02:37:38.066Z,3.53
2023-05-04T02:40:06.061Z,3.30
2023-05-04T02:42:34.006Z,3.22
2023-05-04T02:45:01.644Z,3.17
2023-05-04T02:47:29.182Z,3.33
2023-05-04T02:49:56.889Z,3.20
2023-05-04T02:52:24.570Z,3.17
2023-05-04T02:54:53.152Z,3.58
2023-05-04T02:57:20.882Z,3.30
2023-05-04T02:59:48.514Z,3.05
2023-05-04T03:02:16.201Z,4.32
2023-05-04T03:04:43.942Z,3.33
2023-05-04T03:07:11.699Z,3.28
2023-05-04T03:09:39.216Z,3.00
2023-05-04T03:12:06.844Z,3.38
2023-05-04T03:14:34.392Z,3.42
2023-05-04T03:17:01.883Z,3.67
2023-05-04T03:19:29.281Z,4.07
2023-05-04T03:21:57.241Z,3.50
2023-05-04T03:24:24.654Z,3.28
2023-05-04T03:26:52.168Z,3.83
2023-05-04T03:29:19.722Z,3.85
2023-05-04T03:31:48.858Z,3.30
2023-05-04T03:34:21.781Z,3.53
2023-05-04T03:36:53.851Z,3.65
2023-05-04T03:39:21.346Z,3.47
2023-05-04T03:41:49.621Z,3.60
2023-05-04T03:44:17.199Z,4.07
2023-05-04T03:46:45.122Z,3.92
2023-05-04T03:49:12.669Z,4.28
2023-05-04T03:51:40.111Z,3.20
2023-05-04T03:54:08.978Z,3.33
2023-05-04T03:56:36.499Z,3.45
2023-05-04T03:59:04.196Z,3.22
2023-05-04T04:01:32.508Z,3.47
2023-05-04T04:04:00.151Z,3.58
2023-05-04T04:06:27.834Z,3.88
2023-05-04T04:08:55.251Z,3.25
2023-05-04T04:11:22.808Z,3.50
2023-05-04T04:13:50.649Z,3.47
2023-05-04T04:16:20.075Z,3.78
2023-05-04T04:18:47.661Z,3.80
2023-05-04T04:21:15.188Z,3.38
2023-05-04T04:23:42.575Z,3.97
2023-05-04T04:26:10.459Z,3.65
2023-05-04T04:28:37.957Z,3.40
2023-05-04T04:31:05.496Z,4.07
2023-05-04T04:33:34.596Z,4.35
2023-05-04T04:36:01.938Z,4.20
2023-05-04T04:38:29.584Z,3.88
2023-05-04T04:40:57.189Z,3.45
2023-05-04T04:43:24.660Z,4.95
2023-05-04T04:45:54.120Z,3.78
2023-05-04T04:48:22.680Z,4.28
2023-05-04T04:50:50.534Z,4.13
2023-05-04T04:53:17.961Z,4.68
2023-05-04T04:55:45.475Z,4.13
2023-05-04T04:58:13.414Z,4.25
2023-05-04T05:00:41.065Z,3.78
2023-05-04T05:03:10.364Z,4.43
2023-05-04T05:05:37.931Z,4.53
2023-05-04T05:08:07.797Z,4.00
2023-05-04T05:10:35.356Z,3.65
2023-05-04T05:13:05.188Z,4.53
2023-05-04T05:15:35.052Z,4.30
2023-05-04T05:18:02.781Z,3.63
2023-05-04T05:20:30.284Z,4.50
2023-05-04T05:22:57.840Z,3.97
2023-05-04T05:25:25.389Z,4.60
2023-05-04T05:27:53.303Z,3.80
2023-05-04T05:30:20.825Z,4.68
2023-05-04T05:32:49.421Z,3.72
2023-05-04T05:35:17.379Z,3.85
2023-05-04T05:37:44.767Z,4.10
2023-05-04T05:40:13.595Z,4.03
2023-05-04T05:42:48.651Z,4.13
2023-05-04T05:45:16.349Z,5.05
2023-05-04T05:47:44.017Z,7.05
2023-05-04T05:50:13.753Z,4.97
2023-05-04T05:52:41.328Z,4.55
2023-05-04T05:55:08.935Z,4.43
2023-05-04T05:57:36.455Z,3.45
2023-05-04T06:00:05.346Z,3.72
2023-05-04T06:02:39.832Z,3.95
2023-05-04T06:05:07.672Z,3.90
2023-05-04T06:07:35.099Z,4.00
2023-05-04T06:10:02.971Z,3.90
2023-05-04T06:12:33.491Z,4.38
2023-05-04T06:15:04.684Z,4.93
2023-05-04T06:17:32.142Z,4.57
2023-05-04T06:20:03.204Z,4.32
2023-05-04T06:22:31.406Z,4.38
2023-05-04T06:25:03.642Z,3.72
2023-05-04T06:27:33.869Z,4.18
2023-05-04T06:30:01.793Z,3.67
2023-05-04T06:32:29.346Z,3.42
2023-05-04T06:34:57.069Z,3.67
2023-05-04T06:37:24.616Z,4.40
2023-05-04T06:39:52.133Z,4.57
2023-05-04T06:42:19.752Z,3.95
2023-05-04T06:44:49.383Z,3.63
2023-05-04T06:47:18.212Z,8.32
2023-05-04T06:49:45.524Z,3.58
2023-05-04T06:52:12.854Z,4.22
2023-05-04T06:54:40.469Z,3.58
2023-05-04T06:57:08.152Z,4.03
2023-05-04T06:59:35.449Z,3.85
2023-05-04T07:02:02.769Z,4.13
2023-05-04T07:04:31.573Z,4.55
2023-05-04T07:06:59.206Z,3.92
2023-05-04T07:09:26.872Z,3.75
2023-05-04T07:11:54.248Z,4.03
2023-05-04T07:14:22.010Z,3.38
2023-05-04T07:16:49.732Z,3.70
2023-05-04T07:19:17.513Z,4.15
2023-05-04T07:21:44.999Z,3.60
2023-05-04T07:24:12.422Z,3.50
2023-05-04T07:26:40.046Z,4.18
2023-05-04T07:29:07.630Z,3.65
2023-05-04T07:31:38.372Z,3.97
2023-05-04T07:34:07.405Z,3.72
2023-05-04T07:36:37.653Z,3.58
2023-05-04T07:39:05.361Z,4.45
2023-05-04T07:41:33.099Z,4.10
2023-05-04T07:44:00.921Z,4.00
2023-05-04T07:46:28.482Z,4.07
2023-05-04T07:48:55.973Z,3.70
2023-05-04T07:51:23.970Z,4.03
2023-05-04T07:53:51.534Z,4.22
2023-05-04T07:56:18.842Z,3.45
2023-05-04T07:58:50.701Z,3.28
2023-05-04T08:01:18.648Z,3.63
2023-05-04T08:03:45.996Z,4.10
2023-05-04T08:06:13.297Z,4.07
2023-05-04T08:08:40.775Z,4.20
2023-05-04T08:11:20.043Z,3.47
2023-05-04T08:13:50.319Z,3.10
2023-05-04T08:16:18.307Z,3.72
2023-05-04T08:18:45.725Z,4.00
2023-05-04T08:21:13.281Z,4.05
2023-05-04T08:23:40.678Z,3.75
2023-05-04T08:26:08.037Z,3.75
2023-05-04T08:28:39.770Z,3.88
2023-05-04T08:31:07.891Z,3.85
2023-05-04T08:33:35.973Z,3.33
2023-05-04T08:36:04.757Z,3.15
2023-05-04T08:38:32.418Z,3.90
2023-05-04T08:41:03.262Z,3.63
2023-05-04T08:43:31.150Z,3.28
2023-05-04T08:45:58.708Z,3.70
2023-05-04T08:48:26.524Z,2.95
2023-05-04T08:51:01.130Z,4.10
2023-05-04T08:53:32.424Z,2.70
2023-05-04T08:56:07.073Z,2.90
2023-05-04T08:58:38.001Z,3.00
2023-05-04T09:01:09.983Z,2.75
2023-05-04T09:03:41.372Z,3.00
2023-05-04T09:06:09.355Z,2.90
2023-05-04T09:08:39.927Z,2.92
2023-05-04T09:11:07.614Z,2.97
2023-05-04T09:13:35.632Z,3.10
2023-05-04T09:16:04.111Z,3.00
2023-05-04T09:18:38.832Z,2.97
2023-05-04T09:21:06.921Z,3.05
2023-05-04T09:23:34.493Z,2.95
2023-05-04T09:26:02.575Z,3.05
2023-05-04T09:28:37.068Z,4.15
2023-05-04T09:31:04.939Z,3.58
2023-05-04T09:33:32.380Z,4.40
2023-05-04T09:36:00.631Z,4.07
2023-05-04T09:38:28.457Z,3.05
2023-05-04T09:40:56.137Z,2.72
2023-05-04T09:43:27.161Z,2.67
2023-05-04T09:45:54.636Z,3.17
2023-05-04T09:48:29.043Z,3.10
2023-05-04T09:50:57.597Z,2.83
2023-05-04T09:53:26.055Z,2.88
2023-05-04T09:56:13.535Z,2.65
2023-05-04T09:58:41.566Z,3.20
2023-05-04T10:01:09.066Z,3.25
2023-05-04T10:03:37.116Z,2.65
2023-05-04T10:06:06.041Z,3.10
2023-05-04T10:08:33.816Z,3.20
2023-05-04T10:11:01.771Z,2.97
2023-05-04T10:13:29.145Z,3.00
2023-05-04T10:16:03.431Z,2.95
2023-05-04T10:18:38.474Z,2.72
2023-05-04T10:21:30.791Z,2.40
2023-05-04T10:24:26.144Z,2.75
2023-05-04T10:26:59.697Z,3.08
2023-05-04T10:29:28.738Z,2.42
2023-05-04T10:31:57.009Z,2.42
2023-05-04T10:34:31.652Z,3.42
2023-05-04T10:36:59.566Z,3.58
2023-05-04T10:39:28.652Z,2.90
2023-05-04T10:42:06.688Z,2.90
2023-05-04T10:44:37.695Z,2.60
2023-05-04T10:47:08.688Z,3.40
2023-05-04T10:49:36.565Z,3.08
2023-05-04T10:52:13.349Z,2.85
2023-05-04T10:54:41.399Z,2.70
2023-05-04T10:57:13.674Z,2.58
2023-05-04T10:59:41.784Z,2.97
2023-05-04T11:02:09.679Z,3.10
2023-05-04T11:04:38.426Z,3.03
2023-05-04T11:07:08.272Z,3.20
2023-05-04T11:09:36.716Z,2.47
2023-05-04T11:12:07.425Z,4.30
2023-05-04T11:14:42.259Z,3.58
2023-05-04T11:17:27.359Z,3.25
2023-05-04T11:19:55.955Z,2.50
2023-05-04T11:22:23.661Z,2.42
2023-05-04T11:24:54.140Z,2.65
2023-05-04T11:27:23.395Z,2.58
2023-05-04T11:29:55.038Z,2.25
2023-05-04T11:32:35.463Z,2.53
2023-05-04T11:35:04.411Z,2.67
2023-05-04T11:37:32.362Z,2.72
2023-05-04T11:40:00.179Z,2.35
2023-05-04T11:42:27.536Z,2.42
2023-05-04T11:44:55.726Z,2.80
2023-05-04T11:47:23.331Z,2.88
2023-05-04T11:49:51.114Z,2.70
2023-05-04T11:52:24.286Z,2.22
2023-05-04T11:55:01.600Z,2.35
2023-05-04T11:57:29.006Z,2.40
2023-05-04T11:59:56.529Z,3.13
2023-05-04T12:02:25.715Z,2.42
2023-05-04T12:04:53.886Z,2.83
2023-05-04T12:07:21.303Z,3.03
2023-05-04T12:09:48.979Z,2.42
2023-05-04T12:12:18.872Z,2.53
2023-05-04T12:14:52.991Z,2.38
2023-05-04T12:17:21.402Z,2.70
2023-05-04T12:19:53.156Z,2.63
2023-05-04T12:22:32.946Z,2.83
2023-05-04T12:25:00.777Z,2.42
2023-05-04T12:27:30.065Z,2.70
2023-05-04T12:29:58.388Z,2.63
2023-05-04T12:32:25.968Z,3.10
2023-05-04T12:34:53.296Z,1.95
2023-05-04T12:37:21.323Z,2.58
2023-05-04T12:39:49.460Z,2.55
2023-05-04T12:42:17.894Z,2.97
2023-05-04T12:44:45.269Z,2.22
2023-05-04T12:47:12.676Z,2.50
2023-05-04T12:49:39.990Z,1.98
2023-05-04T12:52:07.724Z,1.85
2023-05-04T12:54:35.326Z,1.90
2023-05-04T12:57:03.385Z,2.15
2023-05-04T12:59:30.849Z,2.15
2023-05-04T13:01:58.216Z,2.53
2023-05-04T13:04:26.513Z,2.92
2023-05-04T13:07:03.596Z,2.10
2023-05-04T13:09:31.073Z,2.53
2023-05-04T13:11:59.332Z,2.03
2023-05-04T13:14:28.623Z,2.10
2023-05-04T13:16:56.188Z,2.30
2023-05-04T13:19:23.541Z,2.45
2023-05-04T13:21:53.581Z,2.22
2023-05-04T13:24:26.440Z,2.42
2023-05-04T13:26:55.096Z,2.55
2023-05-04T13:29:22.440Z,2.40
2023-05-04T13:31:49.791Z,2.22
2023-05-04T13:34:17.229Z,2.45
2023-05-04T13:36:44.577Z,2.33
2023-05-04T13:39:12.205Z,2.42
2023-05-04T13:41:39.858Z,2.08
2023-05-04T13:44:07.317Z,2.50
2023-05-04T13:46:36.621Z,2.30
2023-05-04T13:49:04.041Z,2.47
2023-05-04T13:51:32.149Z,2.88
2023-05-04T13:54:01.146Z,2.17
2023-05-04T13:56:30.066Z,2.33
2023-05-04T13:58:57.337Z,2.85
2023-05-04T14:01:24.908Z,2.60
2023-05-04T14:03:54.045Z,2.10
2023-05-04T14:06:21.832Z,2.55
2023-05-04T14:08:49.535Z,2.30
2023-05-04T14:11:17.406Z,2.42
2023-05-04T14:13:45.702Z,2.42
2023-05-04T14:16:13.000Z,2.22
2023-05-04T14:18:40.378Z,2.88
2023-05-04T14:21:09.951Z,2.20
2023-05-04T14:23:37.438Z,2.92
2023-05-04T14:26:05.960Z,2.15
2023-05-04T14:28:33.217Z,2.10
2023-05-04T14:31:08.600Z,1.98
2023-05-04T14:33:36.639Z,1.80
2023-05-04T14:36:04.442Z,1.95
2023-05-04T14:38:32.866Z,2.05
2023-05-04T14:41:00.246Z,2.28
2023-05-04T14:43:27.731Z,2.00
2023-05-04T14:45:59.888Z,2.00
2023-05-04T14:48:27.694Z,2.03
2023-05-04T14:50:59.387Z,1.80
2023-05-04T14:53:27.354Z,1.92
2023-05-04T14:55:54.688Z,1.75
2023-05-04T14:58:21.926Z,1.83
2023-05-04T15:00:49.335Z,1.60
2023-05-04T15:03:17.411Z,2.38
2023-05-04T15:05:44.990Z,1.90
2023-05-04T15:08:12.361Z,1.63
2023-05-04T15:10:39.808Z,2.28
2023-05-04T15:13:07.357Z,2.22
2023-05-04T15:15:34.761Z,1.52
2023-05-04T15:18:02.445Z,2.10
2023-05-04T15:20:32.089Z,1.50
2023-05-04T15:23:00.054Z,2.53
2023-05-04T15:25:27.460Z,1.95
2023-05-04T15:27:57.354Z,2.63
2023-05-04T15:30:25.832Z,1.70
2023-05-04T15:32:53.447Z,1.60
2023-05-04T15:35:20.969Z,1.65
2023-05-04T15:37:48.285Z,1.75
2023-05-04T15:40:15.854Z,2.35
2023-05-04T15:42:43.410Z,1.58
2023-05-04T15:45:11.293Z,1.48
2023-05-04T15:47:38.732Z,1.75
2023-05-04T15:50:07.850Z,1.77
2023-05-04T15:52:35.638Z,1.55
2023-05-04T15:55:16.419Z,1.85
2023-05-04T15:57:50.279Z,1.75
2023-05-04T16:00:17.876Z,1.48
2023-05-04T16:02:45.636Z,1.75
2023-05-04T16:05:13.535Z,1.55
2023-05-04T16:07:41.034Z,2.33
2023-05-04T16:10:09.081Z,2.55
2023-05-04T16:12:39.347Z,1.50
2023-05-04T16:15:07.309Z,1.58
2023-05-04T16:17:35.370Z,1.55
2023-05-04T16:20:03.855Z,1.65
2023-05-04T16:22:32.224Z,1.60
2023-05-04T16:24:59.589Z,1.00
2023-05-04T16:27:28.429Z,1.80
2023-05-04T16:29:56.224Z,1.40
2023-05-04T16:32:23.977Z,1.30
2023-05-04T16:34:51.349Z,1.40
2023-05-04T16:37:19.048Z,1.75
2023-05-04T16:39:46.469Z,1.48
2023-05-04T16:42:13.727Z,1.60
2023-05-04T16:44:41.060Z,1.65
2023-05-04T16:47:08.514Z,1.52
2023-05-04T16:49:35.827Z,1.65
2023-05-04T16:52:04.866Z,1.38
2023-05-04T16:54:32.438Z,1.30
2023-05-04T16:56:59.936Z,1.98
2023-05-04T16:59:27.593Z,1.45
2023-05-04T17:01:59.205Z,1.63
2023-05-04T17:04:35.303Z,1.20
2023-05-04T17:07:11.022Z,1.58
2023-05-04T17:09:38.549Z,1.45
2023-05-04T17:12:06.238Z,1.98
2023-05-04T17:14:35.215Z,1.48
2023-05-04T17:17:02.976Z,1.85
2023-05-04T17:19:40.683Z,1.80
2023-05-04T17:22:11.228Z,2.30
2023-05-04T17:24:39.758Z,2.45
2023-05-04T17:27:07.149Z,1.73
2023-05-04T17:29:34.490Z,1.63
2023-05-04T17:32:02.485Z,1.70
2023-05-04T17:34:39.863Z,1.88
2023-05-04T17:37:07.513Z,2.20
2023-05-04T17:39:35.165Z,2.67
2023-05-04T17:42:03.108Z,1.85
2023-05-04T17:44:32.837Z,2.17
2023-05-04T17:47:00.310Z,1.70
2023-05-04T17:49:29.569Z,1.80
2023-05-04T17:52:01.375Z,1.55
2023-05-04T17:54:29.170Z,1.90
2023-05-04T17:56:59.767Z,1.40
2023-05-04T17:59:27.635Z,1.60
2023-05-04T18:01:55.061Z,2.47
2023-05-04T18:04:22.430Z,1.83
2023-05-04T18:06:50.816Z,1.88
2023-05-04T18:09:19.661Z,3.47
2023-05-04T18:11:47.752Z,2.30
2023-05-04T18:14:15.017Z,1.90
2023-05-04T18:16:42.373Z,2.78
2023-05-04T18:19:09.776Z,2.88
2023-05-04T18:21:37.595Z,2.38
2023-05-04T18:24:05.432Z,2.95
2023-05-04T18:26:32.869Z,2.95
2023-05-04T18:29:11.208Z,2.60
2023-05-04T18:31:45.693Z,2.55
2023-05-04T18:34:13.059Z,2.33
2023-05-04T18:36:40.657Z,2.35
2023-05-04T18:39:08.776Z,2.70
2023-05-04T18:41:36.221Z,2.63
2023-05-04T18:44:16.826Z,2.65
2023-05-04T18:46:44.314Z,2.60
2023-05-04T18:49:11.821Z,2.08
2023-05-04T18:51:41.802Z,2.10
2023-05-04T18:54:09.741Z,2.33
2023-05-04T18:56:37.222Z,2.38
2023-05-04T18:59:06.074Z,3.22
2023-05-04T19:01:33.854Z,2.38
2023-05-04T19:04:01.607Z,3.13
2023-05-04T19:06:29.006Z,1.85
2023-05-04T19:08:56.453Z,2.95
2023-05-04T19:11:23.857Z,2.67
2023-05-04T19:13:51.256Z,2.70
2023-05-04T19:16:18.917Z,2.75
2023-05-04T19:18:46.223Z,2.35
2023-05-04T19:21:13.577Z,2.83
2023-05-04T19:23:41.045Z,2.72
2023-05-04T19:26:09.327Z,2.53
2023-05-04T19:28:39.945Z,2.53
2023-05-04T19:31:07.459Z,2.40
2023-05-04T19:33:47.180Z,2.67
2023-05-04T19:36:15.843Z,3.13
2023-05-04T19:38:43.123Z,3.03
2023-05-04T19:41:10.704Z,3.15
2023-05-04T19:43:38.803Z,2.90
2023-05-04T19:46:06.954Z,3.75
2023-05-04T19:48:34.682Z,3.25
2023-05-04T19:51:02.531Z,3.47
2023-05-04T19:53:31.071Z,3.47
2023-05-04T19:55:58.757Z,3.70
2023-05-04T19:58:26.423Z,3.55
2023-05-04T20:00:53.930Z,4.13
2023-05-04T20:03:21.591Z,3.95
2023-05-04T20:05:50.812Z,3.58
2023-05-04T20:08:18.327Z,3.38
2023-05-04T20:10:45.759Z,3.50
2023-05-04T20:13:13.777Z,3.72
2023-05-04T20:15:42.694Z,2.88
2023-05-04T20:18:10.193Z,3.35
2023-05-04T20:20:37.884Z,3.20
2023-05-04T20:23:05.566Z,3.80
2023-05-04T20:25:33.039Z,2.85
2023-05-04T20:28:00.805Z,2.70
2023-05-04T20:30:28.893Z,2.72
2023-05-04T20:32:56.499Z,3.53
2023-05-04T20:35:23.854Z,2.63
2023-05-04T20:37:51.328Z,2.42
2023-05-04T20:40:18.737Z,2.63
2023-05-04T20:42:46.435Z,3.10
2023-05-04T20:45:13.985Z,2.33
2023-05-04T20:47:41.474Z,2.85
2023-05-04T20:50:11.796Z,2.88
2023-05-04T20:52:39.434Z,2.85
2023-05-04T20:55:08.029Z,3.20
2023-05-04T20:57:35.712Z,2.60
2023-05-04T21:00:04.574Z,2.80
2023-05-04T21:02:32.222Z,2.83
2023-05-04T21:04:59.700Z,3.40
2023-05-04T21:07:27.775Z,3.83
2023-05-04T21:09:58.527Z,3.38
2023-05-04T21:12:26.063Z,4.82
2023-05-04T21:14:53.622Z,3.08
2023-05-04T21:17:21.107Z,3.67
2023-05-04T21:19:48.457Z,4.03
2023-05-04T21:22:20.424Z,4.28
2023-05-04T21:24:47.741Z,4.00
2023-05-04T21:27:15.454Z,3.72
2023-05-04T21:29:42.959Z,4.43
2023-05-04T21:32:10.554Z,3.75
2023-05-04T21:34:38.096Z,4.53
2023-05-04T21:37:05.482Z,5.07
2023-05-04T21:39:32.658Z,3.72
2023-05-04T21:42:00.095Z,4.50
2023-05-04T21:44:27.419Z,3.95
2023-05-04T21:46:55.822Z,3.85
2023-05-04T21:49:23.165Z,3.92
2023-05-04T21:51:52.672Z,4.35
2023-05-04T21:54:22.096Z,4.07
2023-05-04T21:56:52.193Z,4.03
2023-05-04T21:59:19.491Z,5.60
2023-05-04T22:01:47.251Z,4.90
2023-05-04T22:04:15.660Z,5.35
2023-05-04T22:06:43.138Z,4.78
2023-05-04T22:09:10.327Z,5.30
2023-05-04T22:11:37.866Z,5.65
2023-05-04T22:14:05.154Z,5.82
2023-05-04T22:16:32.719Z,4.57
2023-05-04T22:19:00.589Z,4.68
2023-05-04T22:21:28.333Z,5.63
2023-05-04T22:23:55.826Z,5.43
2023-05-04T22:26:23.333Z,5.63
2023-05-04T22:28:51.011Z,5.93
2023-05-04T22:31:18.513Z,6.93
2023-05-04T22:33:46.306Z,5.93
2023-05-04T22:36:13.817Z,6.43
2023-05-04T22:38:41.290Z,6.63
2023-05-04T22:41:11.165Z,6.13
2023-05-04T22:43:38.561Z,6.97
2023-05-04T22:46:06.237Z,6.65
2023-05-04T22:48:33.735Z,7.03
2023-05-04T22:51:01.130Z,6.93
2023-05-04T22:53:29.378Z,6.18
2023-05-04T22:55:56.793Z,4.30
2023-05-04T22:58:24.228Z,3.97
2023-05-04T23:00:51.672Z,4.57
2023-05-04T23:03:19.438Z,4.38
2023-05-04T23:05:50.065Z,4.30
2023-05-04T23:08:23.964Z,4.68
2023-05-04T23:10:51.397Z,4.72
2023-05-04T23:13:18.814Z,3.50
2023-05-04T23:15:46.586Z,3.42
2023-05-04T23:18:14.131Z,3.33
2023-05-04T23:20:41.842Z,2.63
2023-05-04T23:23:13.377Z,2.20
2023-05-04T23:25:43.781Z,2.08
2023-05-04T23:28:12.385Z,1.83
2023-05-04T23:30:41.183Z,1.95
2023-05-04T23:33:14.839Z,1.40
2023-05-04T23:38:11.098Z,0.90
2023-05-04T23:40:39.116Z,1.30
2023-05-04T23:43:07.077Z,1.10
2023-05-04T23:45:34.724Z,1.80
2023-05-04T23:48:03.399Z,1.27
2023-05-04T23:50:31.095Z,1.88
2023-05-04T23:52:58.533Z,2.33
2023-05-04T23:55:25.804Z,2.00
2023-05-04T23:57:53.382Z,1.73
